Acton, Texas
Current Conditions -  °F | °C
As of 3:35 AM on Friday 31 Oct 2014 (Local Time) from KGDJ Reporting Station
Clear Clear  
Wind Chill: 13°   Ceiling: Unl
Heat Index: 13°   Visibility: 10mi
Dew Point: 10°   Wind: 3mph
Humidity: 83%   Direction: 280°W
Pressure: 30.23"   Gusts: NA
Location:  32.4693°N, 97.7085°W
Report Text: KGDJ 310835Z AUTO 28003KT 10SM CLR 13/10 A3023 RMK AO2 LTG DSNT S T01270098
Loading
Personal Weather Stations






























Interactive Weather Map
Tropical Storm Tracking
New forecast layout! Learn more

10-Day Weather Forecast

Advertisements
Track Severe Weather on mobile